createdAt,value
2017-11-14T00:03:36.848Z,4.50
2017-11-14T00:08:39.377Z,3.97
2017-11-14T00:13:42.001Z,3.90
2017-11-14T00:18:44.580Z,4.90
2017-11-14T00:23:47.128Z,4.47
2017-11-14T00:28:49.690Z,4.03
2017-11-14T00:33:52.236Z,5.13
2017-11-14T00:38:54.816Z,5.20
2017-11-14T00:43:57.396Z,5.03
2017-11-14T00:48:59.971Z,4.03
2017-11-14T00:54:02.516Z,4.60
2017-11-14T00:59:05.066Z,3.70
2017-11-14T01:04:07.615Z,4.57
2017-11-14T01:09:10.187Z,4.13
2017-11-14T01:14:12.853Z,5.13
2017-11-14T01:19:15.417Z,4.47
2017-11-14T01:24:17.975Z,4.30
2017-11-14T01:29:20.555Z,4.13
2017-11-14T01:34:23.108Z,4.70
2017-11-14T01:39:25.722Z,5.37
2017-11-14T01:44:28.314Z,5.00
2017-11-14T01:49:30.873Z,4.10
2017-11-14T01:54:33.431Z,3.80
2017-11-14T01:59:36.002Z,4.50
2017-11-14T02:04:38.608Z,4.50
2017-11-14T02:09:41.169Z,4.10
2017-11-14T02:14:43.705Z,3.87
2017-11-14T02:19:46.263Z,4.33
2017-11-14T02:24:48.835Z,4.10
2017-11-14T02:29:51.405Z,3.83
2017-11-14T02:34:53.976Z,4.27
2017-11-14T02:39:56.564Z,4.37
2017-11-14T02:44:59.190Z,4.07
2017-11-14T02:50:01.733Z,3.60
2017-11-14T02:55:05.068Z,4.17
2017-11-14T03:00:07.638Z,4.20
2017-11-14T03:05:10.185Z,3.83
2017-11-14T03:10:12.743Z,4.40
2017-11-14T03:15:15.329Z,5.90
2017-11-14T03:20:17.928Z,6.57
2017-11-14T03:25:20.496Z,6.67
2017-11-14T03:30:23.046Z,6.50
2017-11-14T03:35:26.379Z,4.73
2017-11-14T03:40:28.970Z,6.20
2017-11-14T03:45:31.540Z,5.83
2017-11-14T03:50:34.130Z,5.93
2017-11-14T03:55:36.685Z,5.70
2017-11-14T04:00:39.261Z,4.47
2017-11-14T04:05:41.821Z,4.87
2017-11-14T04:15:58.833Z,8.03
2017-11-14T04:21:01.415Z,5.53
2017-11-14T04:26:03.977Z,5.50
2017-11-14T04:31:06.561Z,4.50
2017-11-14T04:36:09.142Z,4.90
2017-11-14T04:41:11.684Z,4.13
2017-11-14T04:46:14.287Z,4.97
2017-11-14T04:51:16.850Z,5.23
2017-11-14T04:56:19.427Z,5.67
2017-11-14T05:01:22.094Z,5.97
2017-11-14T05:06:24.714Z,4.70
2017-11-14T05:11:27.301Z,4.60
2017-11-14T05:16:29.952Z,6.57
2017-11-14T05:21:32.534Z,4.40
2017-11-14T05:26:35.104Z,5.53
2017-11-14T05:31:37.691Z,5.13
2017-11-14T05:36:40.275Z,4.90
2017-11-14T05:41:42.845Z,4.60
2017-11-14T05:46:45.407Z,4.33
2017-11-14T05:51:47.962Z,4.60
2017-11-14T05:56:50.527Z,4.87
2017-11-14T06:01:53.094Z,4.40
2017-11-14T06:06:55.674Z,4.60
2017-11-14T06:11:58.248Z,4.97
2017-11-14T06:17:02.732Z,4.43
2017-11-14T06:22:05.320Z,5.33
2017-11-14T06:27:07.912Z,5.37
2017-11-14T06:32:10.460Z,5.00
2017-11-14T06:37:13.098Z,5.43
2017-11-14T06:42:15.650Z,4.37
2017-11-14T06:47:18.215Z,5.53
2017-11-14T06:52:20.787Z,5.23
2017-11-14T06:57:24.197Z,4.60
2017-11-14T07:02:26.848Z,4.90
2017-11-14T07:07:29.405Z,5.77
2017-11-14T07:12:31.979Z,6.63
2017-11-14T07:17:34.549Z,4.30
2017-11-14T07:22:37.104Z,5.20
2017-11-14T07:27:39.663Z,5.27
2017-11-14T07:32:42.213Z,5.17
2017-11-14T07:37:44.763Z,5.90
2017-11-14T07:42:47.333Z,6.47
2017-11-14T07:47:49.905Z,5.80
2017-11-14T07:52:52.455Z,6.53
2017-11-14T07:57:55.028Z,5.77
2017-11-14T08:02:57.587Z,6.70
2017-11-14T08:08:00.150Z,7.43
2017-11-14T08:13:02.715Z,6.80
2017-11-14T08:18:05.261Z,7.50
2017-11-14T08:23:07.826Z,6.53
2017-11-14T08:28:10.399Z,6.93
2017-11-14T08:33:12.945Z,7.20
2017-11-14T08:38:15.504Z,7.07
2017-11-14T08:43:18.040Z,6.97
2017-11-14T08:48:20.640Z,8.10
2017-11-14T08:53:23.951Z,8.00
2017-11-14T08:58:26.533Z,8.23
2017-11-14T09:03:29.136Z,7.70
2017-11-14T09:08:31.685Z,8.33
2017-11-14T09:13:34.263Z,10.73
2017-11-14T09:18:36.820Z,8.67
2017-11-14T09:23:40.157Z,8.90
2017-11-14T09:28:42.962Z,8.33
2017-11-14T09:33:45.501Z,7.20
2017-11-14T09:38:48.044Z,8.07
2017-11-14T09:43:50.618Z,6.90
2017-11-14T09:48:53.233Z,5.50
2017-11-14T09:53:55.812Z,7.93
2017-11-14T09:58:58.381Z,7.47
2017-11-14T10:04:00.959Z,8.30
2017-11-14T10:09:03.536Z,6.47
2017-11-14T10:14:06.107Z,6.40
2017-11-14T10:19:08.757Z,6.70
2017-11-14T10:24:11.305Z,7.37
2017-11-14T10:29:13.852Z,7.37
2017-11-14T10:34:16.450Z,5.30
2017-11-14T10:39:19.003Z,6.17
2017-11-14T10:44:21.669Z,6.60
2017-11-14T10:49:24.257Z,6.17
2017-11-14T10:54:26.833Z,6.87
2017-11-14T10:59:30.153Z,5.90
2017-11-14T11:04:32.705Z,6.50
2017-11-14T11:09:35.264Z,7.10
2017-11-14T11:14:37.822Z,6.03
2017-11-14T11:19:40.400Z,5.87
2017-11-14T11:24:42.969Z,6.40
2017-11-14T11:29:45.534Z,6.40
2017-11-14T11:34:48.113Z,7.10
2017-11-14T11:39:51.497Z,9.87
2017-11-14T11:44:54.071Z,7.17
2017-11-14T11:49:56.643Z,6.27
2017-11-14T11:54:59.968Z,7.00
2017-11-14T12:00:02.545Z,7.10
2017-11-14T12:05:05.126Z,8.10
2017-11-14T12:10:07.697Z,7.60
2017-11-14T12:15:10.316Z,7.53
2017-11-14T12:20:12.897Z,7.43
2017-11-14T12:25:16.211Z,8.30
2017-11-14T12:30:18.760Z,7.77
2017-11-14T12:35:21.352Z,9.23
2017-11-14T12:40:23.917Z,8.00
2017-11-14T12:45:28.289Z,9.40
2017-11-14T12:55:41.147Z,8.73
2017-11-14T13:00:44.017Z,8.10
2017-11-14T13:05:48.299Z,11.13
2017-11-14T13:10:54.939Z,10.30
2017-11-14T13:15:58.234Z,10.07
2017-11-14T13:21:01.906Z,9.53
2017-11-14T13:26:05.587Z,8.33
2017-11-14T13:36:16.236Z,8.70
2017-11-14T13:41:19.524Z,8.50
2017-11-14T13:51:31.373Z,10.80
2017-11-14T13:56:37.958Z,11.27
2017-11-14T14:01:41.669Z,9.80
2017-11-14T14:11:53.069Z,10.60
2017-11-14T14:16:56.630Z,9.90
2017-11-14T14:22:01.592Z,13.00
2017-11-14T14:32:11.512Z,10.60
2017-11-14T14:37:14.885Z,9.53
2017-11-14T14:42:17.453Z,11.07
2017-11-14T14:47:20.614Z,10.47
2017-11-14T14:52:23.189Z,9.97
2017-11-14T14:57:25.867Z,12.03
2017-11-14T15:02:28.485Z,11.10
2017-11-14T15:07:31.080Z,12.07
2017-11-14T15:12:33.671Z,9.80
2017-11-14T15:17:36.246Z,10.30
2017-11-14T15:22:38.837Z,9.93
2017-11-14T15:27:41.418Z,10.07
2017-11-14T15:32:44.825Z,10.57
2017-11-14T15:37:47.404Z,11.60
2017-11-14T15:42:50.416Z,11.57
2017-11-14T15:47:53.000Z,11.10
2017-11-14T15:52:55.572Z,10.40
2017-11-14T15:57:58.533Z,12.63
2017-11-14T16:03:01.149Z,11.40
2017-11-14T16:08:03.753Z,11.00
2017-11-14T16:13:06.295Z,11.63
2017-11-14T16:18:08.939Z,13.80
2017-11-14T16:23:11.634Z,14.07
2017-11-14T16:28:14.230Z,14.50
2017-11-14T16:33:16.910Z,13.60
2017-11-14T16:38:19.584Z,13.87
2017-11-14T16:43:22.189Z,12.67
2017-11-14T16:48:24.760Z,15.87
2017-11-14T16:53:27.339Z,13.83
2017-11-14T16:58:29.929Z,15.10
2017-11-14T17:03:32.539Z,13.57
2017-11-14T17:08:35.110Z,15.43
2017-11-14T17:13:37.708Z,16.20
2017-11-14T17:18:40.388Z,14.67
2017-11-14T17:23:43.075Z,15.90
2017-11-14T17:28:45.693Z,14.03
2017-11-14T17:33:48.440Z,17.30
2017-11-14T17:38:56.878Z,14.10
2017-11-14T17:43:59.540Z,13.70
2017-11-14T17:49:02.166Z,15.63
2017-11-14T17:54:04.780Z,14.73
2017-11-14T17:59:09.970Z,14.47
2017-11-14T18:04:13.384Z,14.07
2017-11-14T18:09:19.212Z,13.87
2017-11-14T18:14:23.243Z,16.10
2017-11-14T18:19:27.142Z,15.37
2017-11-14T18:24:32.766Z,16.33
2017-11-14T18:29:40.535Z,17.07
2017-11-14T18:39:52.014Z,16.70
2017-11-14T18:44:55.699Z,15.20
2017-11-14T18:50:01.064Z,16.20
2017-11-14T18:55:04.870Z,15.30
2017-11-14T19:00:08.794Z,17.30
2017-11-14T19:05:14.332Z,16.33
2017-11-14T19:10:20.204Z,18.27
2017-11-14T19:15:27.086Z,17.27
2017-11-14T19:20:34.697Z,16.17
2017-11-14T19:25:37.502Z,14.83
2017-11-14T19:30:40.218Z,16.80
2017-11-14T19:35:45.317Z,16.60
2017-11-14T19:40:49.004Z,17.93
2017-11-14T19:56:07.220Z,14.73
2017-11-14T20:06:18.667Z,15.73
2017-11-14T20:11:21.845Z,15.30
2017-11-14T20:16:25.593Z,17.30
2017-11-14T20:21:30.296Z,15.13
2017-11-14T20:26:33.934Z,15.53
2017-11-14T20:31:37.090Z,16.70
2017-11-14T20:36:40.245Z,17.10
2017-11-14T20:41:45.489Z,16.07
2017-11-14T20:46:48.196Z,14.43
2017-11-14T20:51:50.862Z,17.13
2017-11-14T20:56:53.500Z,15.20
2017-11-14T21:01:56.069Z,16.50
2017-11-14T21:06:58.718Z,14.70
2017-11-14T21:12:01.301Z,16.13
2017-11-14T21:17:03.912Z,15.40
2017-11-14T21:22:06.510Z,16.80
2017-11-14T21:27:09.122Z,16.70
2017-11-14T21:32:11.730Z,15.00
2017-11-14T21:37:14.285Z,15.13
2017-11-14T21:42:16.850Z,15.20
2017-11-14T21:47:20.184Z,15.50
2017-11-14T21:52:22.735Z,14.80
2017-11-14T21:57:25.296Z,12.87
2017-11-14T22:02:27.968Z,13.80
2017-11-14T22:07:30.526Z,15.90
2017-11-14T22:12:33.093Z,15.27
2017-11-14T22:17:35.649Z,15.80
2017-11-14T22:22:38.233Z,13.17
2017-11-14T22:27:40.814Z,12.30
2017-11-14T22:32:43.617Z,15.53
2017-11-14T22:37:46.193Z,16.47
2017-11-14T22:42:48.748Z,13.70
2017-11-14T22:47:52.240Z,14.43
2017-11-14T22:52:54.781Z,14.07
2017-11-14T22:57:57.372Z,12.67
2017-11-14T23:02:59.973Z,14.57
2017-11-14T23:08:02.546Z,15.30
2017-11-14T23:13:05.686Z,15.60
2017-11-14T23:18:08.258Z,13.30
2017-11-14T23:23:10.821Z,13.53
2017-11-14T23:28:13.373Z,15.40
2017-11-14T23:33:16.069Z,13.50
2017-11-14T23:38:18.640Z,12.77
2017-11-14T23:43:21.202Z,15.30
2017-11-14T23:48:23.764Z,13.67
2017-11-14T23:53:26.552Z,13.93
2017-11-14T23:58:29.113Z,14.93
